createdAt,value
2022-10-11T00:01:58.189Z,59.32
2022-10-11T00:04:31.784Z,59.66
2022-10-11T00:07:00.127Z,59.56
2022-10-11T00:09:28.712Z,59.66
2022-10-11T00:12:00.166Z,60.04
2022-10-11T00:14:29.261Z,59.82
2022-10-11T00:17:00.623Z,59.75
2022-10-11T00:19:31.543Z,59.58
2022-10-11T00:22:00.178Z,59.59
2022-10-11T00:24:28.716Z,59.53
2022-10-11T00:27:02.409Z,59.77
2022-10-11T00:29:30.698Z,59.32
2022-10-11T00:34:29.478Z,59.80
2022-10-11T00:36:59.142Z,60.38
2022-10-11T00:39:27.612Z,60.28
2022-10-11T00:41:58.171Z,60.40
2022-10-11T00:44:59.461Z,60.44
2022-10-11T00:48:03.782Z,60.66
2022-10-11T00:55:00.167Z,61.30
2022-10-11T00:58:01.601Z,61.63
2022-10-11T01:00:32.505Z,61.33
2022-10-11T01:03:02.980Z,61.53
2022-10-11T01:08:56.561Z,62.14
2022-10-11T01:11:29.342Z,62.44
2022-10-11T01:14:56.087Z,62.55
2022-10-11T01:20:59.994Z,62.96
2022-10-11T01:24:08.333Z,63.04
2022-10-11T01:28:02.027Z,63.92
2022-10-11T01:30:59.068Z,63.87
2022-10-11T01:33:30.930Z,64.29
2022-10-11T01:35:59.250Z,64.38
2022-10-11T01:38:58.529Z,64.50
2022-10-11T01:41:54.500Z,65.11
2022-10-11T01:44:28.343Z,65.41
2022-10-11T01:46:56.502Z,65.91
2022-10-11T01:49:25.194Z,65.81
2022-10-11T01:52:00.337Z,65.88
2022-10-11T01:57:56.151Z,66.77
2022-10-11T02:00:53.686Z,67.06
2022-10-11T02:03:55.838Z,66.92
2022-10-11T02:07:05.081Z,66.75
2022-10-11T02:10:00.636Z,67.42
2022-10-11T02:13:00.577Z,67.75
2022-10-11T02:15:57.616Z,68.14
2022-10-11T02:18:52.960Z,68.42
2022-10-11T02:21:24.502Z,68.25
2022-10-11T02:24:02.742Z,68.67
2022-10-11T02:27:04.157Z,68.78
2022-10-11T02:29:53.528Z,69.06
2022-10-11T02:35:24.213Z,69.26
2022-10-11T02:41:00.377Z,69.43
2022-10-11T02:43:58.437Z,69.58
2022-10-11T02:46:53.238Z,69.58
2022-10-11T02:49:24.561Z,69.25
2022-10-11T02:51:52.786Z,69.36
2022-10-11T02:54:20.962Z,69.69
2022-10-11T02:56:52.342Z,70.00
2022-10-11T02:59:23.706Z,70.07
2022-10-11T03:01:51.955Z,70.75
2022-10-11T03:04:23.487Z,70.41
2022-10-11T03:06:51.693Z,70.40
2022-10-11T03:09:23.061Z,70.39
2022-10-11T03:11:51.363Z,69.96
2022-10-11T03:14:22.505Z,70.32
2022-10-11T03:16:51.571Z,69.94
2022-10-11T03:19:22.981Z,70.74
2022-10-11T03:21:51.302Z,70.75
2022-10-11T03:24:22.354Z,71.38
2022-10-11T03:26:50.660Z,71.35
2022-10-11T03:29:21.806Z,71.32
2022-10-11T03:32:23.629Z,71.89
2022-10-11T03:35:21.862Z,71.73
2022-10-11T03:37:51.082Z,71.47
2022-10-11T03:40:25.516Z,71.52
2022-10-11T03:43:20.044Z,72.11
2022-10-11T03:49:19.761Z,71.93
2022-10-11T03:52:18.943Z,72.27
2022-10-11T03:55:19.376Z,72.74
2022-10-11T03:58:18.674Z,72.98
2022-10-11T04:03:50.180Z,72.50
2022-10-11T04:06:19.209Z,72.42
2022-10-11T04:14:50.040Z,72.63
2022-10-11T04:17:18.762Z,72.80
2022-10-11T04:22:47.849Z,73.46
2022-10-11T04:25:19.183Z,73.40
2022-10-11T04:27:47.448Z,73.10
2022-10-11T04:30:19.106Z,73.29
2022-10-11T04:32:47.327Z,73.57
2022-10-11T04:35:18.750Z,73.51
2022-10-11T04:37:47.086Z,73.61
2022-10-11T04:40:19.023Z,73.40
2022-10-11T04:42:47.952Z,72.90
2022-10-11T04:47:46.965Z,73.09
2022-10-11T04:50:17.814Z,73.93
2022-10-11T04:52:45.978Z,73.48
2022-10-11T04:55:17.278Z,73.35
2022-10-11T04:57:45.130Z,73.82
2022-10-11T05:00:15.928Z,73.52
2022-10-11T05:02:44.108Z,73.84
2022-10-11T05:05:18.369Z,73.87
2022-10-11T05:07:46.633Z,74.19
2022-10-11T05:10:15.486Z,74.15
2022-10-11T05:12:46.604Z,74.29
2022-10-11T05:15:14.942Z,74.22
2022-10-11T05:17:46.305Z,74.39
2022-10-11T05:20:14.723Z,74.20
2022-10-11T05:22:44.240Z,74.28
2022-10-11T05:25:15.323Z,74.09
2022-10-11T05:43:45.463Z,74.81
2022-10-11T05:49:42.579Z,74.74
2022-10-11T05:58:43.546Z,75.29
2022-10-11T06:01:17.427Z,75.57
2022-10-11T06:03:45.765Z,75.58
2022-10-11T06:06:41.179Z,75.90
2022-10-11T06:12:10.270Z,76.29
2022-10-11T06:14:41.618Z,76.47
2022-10-11T06:17:11.302Z,77.27
2022-10-11T06:19:42.774Z,77.06
2022-10-11T06:28:41.247Z,76.81
2022-10-11T06:31:12.983Z,76.88
2022-10-11T06:33:41.876Z,77.01
2022-10-11T06:36:14.018Z,76.92
2022-10-11T06:38:44.917Z,76.47
2022-10-11T06:44:13.917Z,76.23
2022-10-11T06:46:42.845Z,76.10
2022-10-11T06:49:11.118Z,76.18
2022-10-11T06:51:39.294Z,76.05
2022-10-11T06:54:10.785Z,76.00
2022-10-11T06:56:39.084Z,76.14
2022-10-11T06:59:10.409Z,76.03
2022-10-11T07:14:41.479Z,75.82
2022-10-11T07:17:09.809Z,75.73
2022-10-11T07:23:07.146Z,76.11
2022-10-11T07:25:37.381Z,76.08
2022-10-11T07:28:06.381Z,76.38
2022-10-11T07:31:06.336Z,76.53
2022-10-11T07:36:37.564Z,76.12
2022-10-11T07:39:08.083Z,76.16
2022-10-11T07:47:36.457Z,75.99
2022-10-11T07:53:06.990Z,76.17
2022-10-11T07:56:06.703Z,76.16
2022-10-11T07:58:35.239Z,75.76
2022-10-11T08:01:05.414Z,75.79
2022-10-11T08:07:11.647Z,75.48
2022-10-11T08:09:39.903Z,75.70
2022-10-11T08:12:08.191Z,75.63
2022-10-11T08:14:36.393Z,75.27
2022-10-11T08:17:04.615Z,75.18
2022-10-11T08:19:32.966Z,75.12
2022-10-11T08:22:04.048Z,75.62
2022-10-11T08:24:35.977Z,76.12
2022-10-11T08:27:06.458Z,76.07
2022-10-11T08:29:35.077Z,76.55
2022-10-11T08:32:03.295Z,76.69
2022-10-11T08:34:34.660Z,76.85
2022-10-11T08:37:02.514Z,77.32
2022-10-11T08:40:04.142Z,77.16
2022-10-11T08:42:37.517Z,77.02
2022-10-11T08:45:12.345Z,76.93
2022-10-11T08:48:30.660Z,76.62
2022-10-11T08:51:04.383Z,76.51
2022-10-11T08:53:45.701Z,76.19
2022-10-11T08:56:16.199Z,75.73
2022-10-11T08:59:10.338Z,75.32
2022-10-11T09:02:00.933Z,75.38
2022-10-11T09:04:33.212Z,75.00
2022-10-11T09:07:59.650Z,74.42
2022-10-11T09:11:04.896Z,74.41
2022-10-11T09:14:29.508Z,74.42
2022-10-11T09:26:44.925Z,73.25
2022-10-11T09:29:34.781Z,73.49
2022-10-11T09:32:33.265Z,73.04
2022-10-11T09:35:29.545Z,73.15
2022-10-11T09:45:00.953Z,72.27
2022-10-11T09:47:57.482Z,72.52
2022-10-11T09:50:31.484Z,72.71
2022-10-11T09:53:27.114Z,72.80
2022-10-11T09:56:05.342Z,73.02
2022-10-11T10:01:30.176Z,72.85
2022-10-11T10:04:26.287Z,72.74
2022-10-11T10:07:11.893Z,72.83
2022-10-11T10:12:31.588Z,72.30
2022-10-11T10:15:25.336Z,72.61
2022-10-11T10:17:56.528Z,72.80
2022-10-11T10:20:32.690Z,73.18
2022-10-11T10:23:34.112Z,73.21
2022-10-11T10:26:27.877Z,73.17
2022-10-11T10:29:27.734Z,73.33
2022-10-11T10:32:14.744Z,73.93
2022-10-11T10:37:55.178Z,73.89
2022-10-11T10:40:54.864Z,74.39
2022-10-11T10:43:54.960Z,74.48
2022-10-11T10:47:21.966Z,74.40
2022-10-11T10:49:55.608Z,74.69
2022-10-11T10:55:51.632Z,74.93
2022-10-11T10:58:54.551Z,75.42
2022-10-11T11:01:51.506Z,75.16
2022-10-11T11:04:56.517Z,75.32
2022-10-11T11:08:21.359Z,75.05
2022-10-11T11:11:51.003Z,75.14
2022-10-11T11:14:51.076Z,75.08
2022-10-11T11:17:51.623Z,74.83
2022-10-11T11:20:57.567Z,75.05
2022-10-11T11:24:02.926Z,74.68
2022-10-11T11:27:49.630Z,73.36
2022-10-11T11:33:51.536Z,73.97
2022-10-11T11:36:50.171Z,74.21
2022-10-11T11:39:48.194Z,74.36
2022-10-11T11:42:32.159Z,73.91
2022-10-11T11:45:20.676Z,74.48
2022-10-11T11:48:01.923Z,74.89
2022-10-11T11:51:17.644Z,75.10
2022-10-11T11:58:24.305Z,75.44
2022-10-11T12:01:45.592Z,75.35
2022-10-11T12:04:35.744Z,75.95
2022-10-11T12:10:20.341Z,76.12
2022-10-11T12:13:18.830Z,75.97
2022-10-11T12:16:17.580Z,76.00
2022-10-11T12:22:59.841Z,75.21
2022-10-11T12:26:47.209Z,75.16
2022-10-11T12:33:55.160Z,76.37
2022-10-11T12:44:50.538Z,77.22
2022-10-11T12:48:19.488Z,77.46
2022-10-11T12:51:24.391Z,77.98
2022-10-11T12:54:27.269Z,78.82
2022-10-11T12:57:15.664Z,78.13
2022-10-11T12:59:46.558Z,77.52
2022-10-11T13:02:45.761Z,76.54
2022-10-11T13:05:44.973Z,75.58
2022-10-11T13:08:23.827Z,75.60
2022-10-11T13:14:39.040Z,74.10
2022-10-11T13:17:39.816Z,73.61
2022-10-11T13:20:22.435Z,73.59
2022-10-11T13:22:59.062Z,73.22
2022-10-11T13:25:41.283Z,73.02
2022-10-11T13:28:10.849Z,72.94
2022-10-11T13:30:45.224Z,72.54
2022-10-11T13:33:21.934Z,72.26
2022-10-11T13:35:51.045Z,72.42
2022-10-11T13:38:31.563Z,72.56
2022-10-11T13:41:08.775Z,73.01
2022-10-11T13:43:38.306Z,72.96
2022-10-11T13:46:07.691Z,72.88
2022-10-11T13:48:42.000Z,72.88
2022-10-11T13:51:18.199Z,72.92
2022-10-11T13:54:13.768Z,73.62
2022-10-11T13:56:50.320Z,73.50
2022-10-11T13:59:31.921Z,73.07
2022-10-11T14:02:05.621Z,73.46
2022-10-11T14:16:39.178Z,74.67
2022-10-11T14:19:50.394Z,74.42
2022-10-11T14:27:10.058Z,74.78
2022-10-11T14:30:25.200Z,74.56
2022-10-11T14:37:14.947Z,74.52
2022-10-11T14:49:48.864Z,74.50
2022-10-11T14:51:12.051Z,74.48
2022-10-11T15:04:04.652Z,75.39
2022-10-11T15:10:14.806Z,75.10
2022-10-11T15:13:08.110Z,75.08
2022-10-11T15:15:40.985Z,74.97
2022-10-11T15:18:13.297Z,75.05
2022-10-11T15:20:48.072Z,75.01
2022-10-11T15:23:35.470Z,75.80
2022-10-11T15:30:04.635Z,75.62
2022-10-11T15:35:34.547Z,75.58
2022-10-11T15:38:33.722Z,75.88
2022-10-11T15:41:02.682Z,75.67
2022-10-11T15:43:33.943Z,75.07
2022-10-11T15:46:04.295Z,75.38
2022-10-11T15:48:33.895Z,75.40
2022-10-11T15:51:02.297Z,75.49
2022-10-11T15:53:32.320Z,75.48
2022-10-11T15:56:33.780Z,75.68
2022-10-11T15:59:41.165Z,75.67
2022-10-11T16:02:34.124Z,75.72
2022-10-11T16:05:32.058Z,75.75
2022-10-11T16:08:01.073Z,75.58
2022-10-11T16:10:32.612Z,75.28
2022-10-11T16:13:00.928Z,75.49
2022-10-11T16:15:29.632Z,75.34
2022-10-11T16:18:00.685Z,74.87
2022-10-11T16:20:29.240Z,74.75
2022-10-11T16:22:58.300Z,75.03
2022-10-11T16:25:26.758Z,75.17
2022-10-11T16:27:55.287Z,75.06
2022-10-11T16:31:11.979Z,75.83
2022-10-11T16:34:06.609Z,76.66
2022-10-11T16:37:01.773Z,77.16
2022-10-11T16:39:59.932Z,77.51
2022-10-11T16:43:25.617Z,78.51
2022-10-11T16:46:02.921Z,78.61
2022-10-11T16:48:59.209Z,79.50
2022-10-11T16:51:28.222Z,79.33
2022-10-11T16:54:04.873Z,79.61
2022-10-11T16:56:58.431Z,80.69
2022-10-11T16:59:27.003Z,80.05
2022-10-11T17:02:01.086Z,80.40
2022-10-11T17:04:31.752Z,80.48
2022-10-11T17:07:00.431Z,80.41
2022-10-11T17:09:28.713Z,81.00
2022-10-11T17:11:56.951Z,81.29
2022-10-11T17:14:25.212Z,80.90
2022-10-11T17:16:53.943Z,80.96
2022-10-11T17:19:25.486Z,81.31
2022-10-11T17:21:53.725Z,82.13
2022-10-11T17:24:22.063Z,82.25
2022-10-11T17:26:52.834Z,82.87
2022-10-11T17:29:22.084Z,82.06
2022-10-11T17:31:50.447Z,82.13
2022-10-11T17:34:19.421Z,81.58
2022-10-11T17:36:50.829Z,81.59
2022-10-11T17:39:21.873Z,81.87
2022-10-11T17:41:52.908Z,81.10
2022-10-11T17:44:24.625Z,80.46
2022-10-11T17:46:52.925Z,80.13
2022-10-11T17:49:24.367Z,79.71
2022-10-11T17:54:50.234Z,78.46
2022-10-11T17:57:26.009Z,77.71
2022-10-11T18:00:11.969Z,76.60
2022-10-11T18:03:21.280Z,75.37
2022-10-11T18:05:52.915Z,74.59
2022-10-11T18:08:24.119Z,74.02
2022-10-11T18:10:51.962Z,72.80
2022-10-11T18:13:21.014Z,73.02
2022-10-11T18:15:53.682Z,72.49
2022-10-11T18:18:22.288Z,72.63
2022-10-11T18:20:51.525Z,71.97
2022-10-11T18:23:20.654Z,71.87
2022-10-11T18:25:52.473Z,71.25
2022-10-11T18:28:20.716Z,70.66
2022-10-11T18:30:51.443Z,70.50
2022-10-11T18:33:19.759Z,70.13
2022-10-11T18:35:51.095Z,69.88
2022-10-11T18:38:19.975Z,69.15
2022-10-11T18:40:49.303Z,69.39
2022-10-11T18:43:20.675Z,68.32
2022-10-11T18:45:51.208Z,67.51
2022-10-11T18:48:19.558Z,67.82
2022-10-11T18:50:51.100Z,67.55
2022-10-11T18:53:19.266Z,66.82
2022-10-11T18:55:48.471Z,66.85
2022-10-11T18:58:25.950Z,66.40
2022-10-11T19:00:54.265Z,65.88
2022-10-11T19:06:19.400Z,65.10
2022-10-11T19:08:52.718Z,64.57
2022-10-11T19:11:29.491Z,64.48
2022-10-11T19:14:03.229Z,63.83
2022-10-11T19:16:34.993Z,64.00
2022-10-11T19:19:03.538Z,63.66
2022-10-11T19:21:32.183Z,63.46
2022-10-11T19:24:09.859Z,62.98
2022-10-11T19:26:44.419Z,62.24
2022-10-11T19:29:21.694Z,62.34
2022-10-11T19:31:53.206Z,62.44
2022-10-11T19:34:23.470Z,62.21
2022-10-11T19:36:53.639Z,62.06
2022-10-11T19:39:23.645Z,62.22
2022-10-11T19:41:54.335Z,61.27
2022-10-11T19:44:28.857Z,60.64
2022-10-11T19:47:04.950Z,61.00
2022-10-11T19:49:43.669Z,61.09
2022-10-11T19:52:17.581Z,60.22
2022-10-11T19:54:48.627Z,60.90
2022-10-11T19:57:16.921Z,60.14
2022-10-11T19:59:46.532Z,59.57
2022-10-11T20:02:16.040Z,59.44
2022-10-11T20:04:52.371Z,58.73
2022-10-11T20:07:26.109Z,59.02
2022-10-11T20:09:54.353Z,59.30
2022-10-11T20:12:35.279Z,58.59
2022-10-11T20:15:17.566Z,58.79
2022-10-11T20:17:52.707Z,58.61
2022-10-11T20:20:30.492Z,58.27
2022-10-11T20:22:59.403Z,58.42
2022-10-11T20:25:28.348Z,58.80
2022-10-11T20:27:56.840Z,59.32
2022-10-11T20:30:44.398Z,57.89
2022-10-11T20:33:15.586Z,58.37
2022-10-11T20:35:44.024Z,57.73
2022-10-11T20:38:15.317Z,57.47
2022-10-11T20:40:43.580Z,57.54
2022-10-11T20:43:14.707Z,57.78
2022-10-11T20:45:43.387Z,57.76
2022-10-11T20:48:11.998Z,57.95
2022-10-11T20:50:46.573Z,57.73
2022-10-11T20:53:16.445Z,57.97
2022-10-11T20:56:14.996Z,57.87
2022-10-11T20:58:55.664Z,58.24
2022-10-11T21:01:48.963Z,57.91
2022-10-11T21:04:32.921Z,57.58
2022-10-11T21:10:06.768Z,57.51
2022-10-11T21:13:11.909Z,57.92
2022-10-11T21:16:13.617Z,57.71
2022-10-11T21:18:42.130Z,57.81
2022-10-11T21:25:11.684Z,57.26
2022-10-11T21:28:10.981Z,57.47
2022-10-11T21:33:33.043Z,57.01
2022-10-11T21:36:18.196Z,57.34
2022-10-11T21:44:39.906Z,57.25
2022-10-11T21:47:11.819Z,57.32
2022-10-11T21:50:14.159Z,57.82
2022-10-11T21:52:42.486Z,57.67
2022-10-11T21:55:17.213Z,57.43
2022-10-11T21:58:14.779Z,56.47
2022-10-11T22:01:18.038Z,58.04
2022-10-11T22:04:36.440Z,58.12
2022-10-11T22:07:22.264Z,58.65
2022-10-11T22:10:14.225Z,58.84
2022-10-11T22:12:42.590Z,58.86
2022-10-11T22:15:11.352Z,58.83
2022-10-11T22:17:42.538Z,59.10
2022-10-11T22:20:11.545Z,59.16
2022-10-11T22:23:21.686Z,59.45
2022-10-11T22:26:16.231Z,59.46
2022-10-11T22:39:41.305Z,59.51
2022-10-11T23:32:06.692Z,62.81
2022-10-11T23:35:06.157Z,62.33
2022-10-11T23:38:17.440Z,62.74
2022-10-11T23:40:52.011Z,63.02
2022-10-11T23:43:35.736Z,62.62
2022-10-11T23:46:06.734Z,63.41
2022-10-11T23:53:02.141Z,63.69
